Time;durP1;ratioP1;P1;durP2;ratioP2;P2;SDS_P1;SDS_P2;PMS_P1;PMS_P2;Temp;Humidity;BMP_temperature;BMP_pressure;BME280_temperature;BME280_humidity;BME280_pressure;Samples;Min_cycle;Max_cycle;Signal;HPM_P1;HPM_P2
2021/03/23 00:00:36;;;;;;;16.70;9.30;;;7.80;99.90;;;;;;5036237;28;20427;-72
2021/03/23 00:03:12;;;;;;;13.47;9.30;;;7.80;99.90;;;;;;5036365;28;20397;-73
2021/03/23 00:05:38;;;;;;;11.60;9.20;;;7.90;99.90;;;;;;5034810;28;20440;-72
2021/03/23 00:08:05;;;;;;;16.07;9.73;;;7.80;99.90;;;;;;5035604;28;20411;-72
2021/03/23 00:10:31;;;;;;;11.80;8.77;;;7.80;99.90;;;;;;5034042;28;20447;-72
2021/03/23 00:12:57;;;;;;;14.50;9.10;;;7.90;99.90;;;;;;5035771;28;20422;-72
2021/03/23 00:15:23;;;;;;;11.73;9.37;;;7.80;99.90;;;;;;5035471;28;20478;-71
2021/03/23 00:17:50;;;;;;;14.07;10.13;;;7.80;99.90;;;;;;5035563;28;20170;-72
2021/03/23 00:20:20;;;;;;;13.33;8.90;;;7.90;99.90;;;;;;5034557;28;20203;-71
2021/03/23 00:22:45;;;;;;;9.90;8.03;;;7.90;99.90;;;;;;5036447;28;20910;-71
2021/03/23 00:25:12;;;;;;;11.30;8.87;;;7.80;99.90;;;;;;5014844;28;20467;-71
2021/03/23 00:27:38;;;;;;;11.20;8.30;;;7.90;99.90;;;;;;5014453;28;20185;-72
2021/03/23 00:30:09;;;;;;;9.83;8.40;;;7.90;99.90;;;;;;5016443;28;20443;-72
2021/03/23 00:32:35;;;;;;;12.53;9.20;;;7.90;99.90;;;;;;5015499;28;20948;-72
2021/03/23 00:35:02;;;;;;;14.10;8.23;;;7.90;99.90;;;;;;5015201;28;20469;-72
2021/03/23 00:37:27;;;;;;;10.40;7.37;;;7.90;99.90;;;;;;5015494;28;20413;-72
2021/03/23 00:39:53;;;;;;;11.93;9.47;;;7.90;99.90;;;;;;5015062;28;20948;-71
2021/03/23 00:42:19;;;;;;;9.67;8.67;;;7.80;99.90;;;;;;5016308;28;20451;-72
2021/03/23 00:44:46;;;;;;;14.57;9.10;;;7.80;99.90;;;;;;5015181;28;20182;-72
2021/03/23 00:47:12;;;;;;;12.30;9.50;;;7.80;99.90;;;;;;5015136;28;20205;-72
2021/03/23 00:49:37;;;;;;;11.57;8.30;;;7.80;99.90;;;;;;5015391;28;20432;-72
2021/03/23 00:52:03;;;;;;;9.47;8.20;;;7.80;99.90;;;;;;5016429;28;20905;-72
2021/03/23 00:54:29;;;;;;;11.50;8.20;;;7.80;99.90;;;;;;5015171;28;20351;-72
2021/03/23 00:56:54;;;;;;;11.80;9.43;;;7.80;99.90;;;;;;5015025;28;20417;-74
2021/03/23 00:59:20;;;;;;;12.73;9.87;;;7.80;99.90;;;;;;5014886;28;20667;-72
2021/03/23 01:01:45;;;;;;;12.20;9.60;;;7.80;99.90;;;;;;5015573;28;20201;-71
2021/03/23 01:04:11;;;;;;;11.33;9.53;;;7.80;99.90;;;;;;5015309;28;20262;-71
2021/03/23 01:06:36;;;;;;;11.40;9.50;;;7.80;99.90;;;;;;5015215;28;20175;-72
2021/03/23 01:09:02;;;;;;;12.87;10.30;;;7.80;99.90;;;;;;5014495;28;20176;-72
2021/03/23 01:11:28;;;;;;;14.27;10.33;;;7.80;99.90;;;;;;5014682;28;20566;-72
2021/03/23 01:13:53;;;;;;;14.43;10.50;;;7.80;99.90;;;;;;5015706;28;20457;-72
2021/03/23 01:16:19;;;;;;;15.20;11.17;;;7.80;99.90;;;;;;5013841;28;20262;-72
2021/03/23 01:18:45;;;;;;;14.77;11.40;;;7.90;99.90;;;;;;5013241;28;20175;-71
2021/03/23 01:21:10;;;;;;;14.80;12.10;;;7.80;99.90;;;;;;5014855;28;20540;-71
2021/03/23 01:23:36;;;;;;;15.63;11.77;;;7.70;99.90;;;;;;5016024;28;20273;-71
2021/03/23 01:26:01;;;;;;;15.07;12.20;;;7.70;99.90;;;;;;5014731;28;20177;-74
2021/03/23 01:28:27;;;;;;;17.10;12.90;;;7.70;99.90;;;;;;5014378;28;20174;-71
2021/03/23 01:30:53;;;;;;;18.30;13.43;;;7.70;99.90;;;;;;5014819;28;20193;-72
2021/03/23 01:33:18;;;;;;;17.77;12.93;;;7.60;99.90;;;;;;5014873;28;20222;-72
2021/03/23 01:35:44;;;;;;;14.97;12.67;;;7.60;99.90;;;;;;5016664;28;20665;-71
2021/03/23 01:38:09;;;;;;;18.63;14.43;;;7.50;99.90;;;;;;5013285;28;20194;-72
2021/03/23 01:40:36;;;;;;;22.30;14.53;;;7.60;99.90;;;;;;5013514;28;20210;-72
2021/03/23 01:43:05;;;;;;;16.50;13.73;;;7.60;99.90;;;;;;5014198;28;20174;-72
2021/03/23 01:45:36;;;;;;;17.07;13.50;;;7.60;99.90;;;;;;5014741;28;20411;-71
2021/03/23 01:48:15;;;;;;;19.30;14.10;;;7.70;99.90;;;;;;5014268;28;20490;-72
2021/03/23 01:50:41;;;;;;;16.47;13.70;;;7.70;99.90;;;;;;5014880;28;20436;-72
2021/03/23 01:53:18;;;;;;;17.03;13.50;;;7.80;99.90;;;;;;5014559;28;20450;-72
2021/03/23 01:55:43;;;;;;;17.17;13.90;;;7.80;99.90;;;;;;5014148;28;20658;-71
2021/03/23 01:58:10;;;;;;;17.50;13.17;;;7.80;99.90;;;;;;5013803;28;20463;-72
2021/03/23 02:00:36;;;;;;;18.20;14.13;;;7.80;99.90;;;;;;5014494;28;20188;-71
2021/03/23 02:03:04;;;;;;;18.53;14.70;;;7.80;99.90;;;;;;5014414;28;20503;-72
2021/03/23 02:05:32;;;;;;;17.30;14.30;;;7.80;99.90;;;;;;5014093;28;20403;-72
2021/03/23 02:08:00;;;;;;;16.97;13.60;;;7.80;99.90;;;;;;5014343;28;20415;-73
2021/03/23 02:10:26;;;;;;;18.90;14.10;;;7.70;99.90;;;;;;5030725;28;20463;-72
2021/03/23 02:12:53;;;;;;;19.23;14.13;;;7.70;99.90;;;;;;5034306;28;20415;-72
2021/03/23 02:15:22;;;;;;;17.73;14.20;;;7.70;99.90;;;;;;5032607;28;20965;-72
2021/03/23 02:18:11;;;;;;;19.90;13.80;;;7.70;99.90;;;;;;5033620;28;20408;-72
2021/03/23 02:20:56;;;;;;;20.83;15.57;;;7.70;99.90;;;;;;5030343;28;20948;-72
2021/03/23 02:23:25;;;;;;;18.70;12.90;;;7.60;99.90;;;;;;5033583;28;20396;-72
2021/03/23 02:25:50;;;;;;;18.93;14.20;;;7.60;99.90;;;;;;5033554;28;21007;-72
2021/03/23 02:28:16;;;;;;;19.20;15.83;;;7.60;99.90;;;;;;5033665;28;20506;-72
2021/03/23 02:30:43;;;;;;;18.50;14.60;;;7.70;99.90;;;;;;5031766;28;20288;-72
2021/03/23 02:33:08;;;;;;;20.97;15.13;;;7.70;99.90;;;;;;5033795;28;20580;-72
2021/03/23 02:35:36;;;;;;;17.30;15.17;;;7.60;99.90;;;;;;5033620;28;20550;-72
2021/03/23 02:38:02;;;;;;;18.00;13.43;;;7.60;99.90;;;;;;5035813;28;20188;-72
2021/03/23 02:40:28;;;;;;;18.57;15.30;;;7.70;99.90;;;;;;5033831;28;20458;-72
2021/03/23 02:42:55;;;;;;;19.50;15.07;;;7.70;99.90;;;;;;5036064;28;20446;-72
2021/03/23 02:45:21;;;;;;;19.13;14.93;;;7.70;99.90;;;;;;5035446;28;20478;-72
2021/03/23 02:47:47;;;;;;;18.57;14.43;;;7.70;99.90;;;;;;5035443;28;20407;-72
2021/03/23 02:50:14;;;;;;;16.97;12.97;;;7.70;99.90;;;;;;5033581;28;20434;-72
2021/03/23 02:52:40;;;;;;;18.27;12.60;;;7.70;99.90;;;;;;5032259;28;20446;-72
2021/03/23 02:55:06;;;;;;;21.40;14.33;;;7.70;99.90;;;;;;5033986;28;20492;-71
2021/03/23 02:57:32;;;;;;;20.20;14.47;;;7.70;99.90;;;;;;5033601;28;20173;-71
2021/03/23 02:59:58;;;;;;;22.57;14.57;;;7.70;99.90;;;;;;5033332;28;20495;-71
2021/03/23 03:02:23;;;;;;;16.73;12.20;;;7.60;99.90;;;;;;5031993;28;20229;-72
2021/03/23 03:04:49;;;;;;;17.70;12.80;;;7.60;99.90;;;;;;5033374;28;20294;-72
2021/03/23 03:07:14;;;;;;;17.20;12.80;;;7.60;99.90;;;;;;5033680;28;20198;-72
2021/03/23 03:09:40;;;;;;;20.30;14.83;;;7.50;99.90;;;;;;5033578;28;20513;-72
2021/03/23 03:12:06;;;;;;;20.00;14.13;;;7.50;99.90;;;;;;5034152;28;20254;-73
2021/03/23 03:14:32;;;;;;;17.10;12.97;;;7.40;99.90;;;;;;5034277;28;20554;-72
2021/03/23 03:16:58;;;;;;;19.20;13.77;;;7.30;99.90;;;;;;5034595;28;20503;-72
2021/03/23 03:19:24;;;;;;;19.50;12.80;;;7.20;99.90;;;;;;5052254;28;20231;-72
2021/03/23 03:21:49;;;;;;;15.93;11.80;;;7.20;99.90;;;;;;5051993;28;20206;-72
2021/03/23 03:24:16;;;;;;;16.43;12.50;;;7.20;99.90;;;;;;5035095;28;20431;-72
2021/03/23 03:26:41;;;;;;;15.27;12.20;;;7.20;99.90;;;;;;5055996;28;20250;-73
2021/03/23 03:29:07;;;;;;;16.60;12.90;;;7.30;99.90;;;;;;5056916;28;20397;-72
2021/03/23 03:31:33;;;;;;;18.67;12.57;;;7.40;99.90;;;;;;5042269;28;20234;-72
2021/03/23 03:34:00;;;;;;;16.57;11.77;;;7.40;99.90;;;;;;5017171;28;20291;-72
2021/03/23 03:36:28;;;;;;;14.37;11.37;;;7.50;99.90;;;;;;5017617;28;20414;-72
2021/03/23 03:38:54;;;;;;;19.10;12.00;;;7.50;99.90;;;;;;5016723;28;20447;-72
2021/03/23 03:41:21;;;;;;;15.77;12.07;;;7.60;99.90;;;;;;5016859;28;20457;-72
2021/03/23 03:43:47;;;;;;;18.03;12.50;;;7.60;99.90;;;;;;5017122;28;20438;-72
2021/03/23 03:46:13;;;;;;;18.03;11.80;;;7.60;99.90;;;;;;5028189;28;20429;-72
2021/03/23 03:48:39;;;;;;;14.83;11.27;;;7.60;99.90;;;;;;5036890;28;20417;-72
2021/03/23 03:51:05;;;;;;;17.60;11.47;;;7.60;99.90;;;;;;5036728;28;20439;-72
2021/03/23 03:53:31;;;;;;;14.40;11.90;;;7.50;99.90;;;;;;5034707;28;20432;-72
2021/03/23 03:55:57;;;;;;;17.30;11.40;;;7.50;99.90;;;;;;5036877;28;20406;-72
2021/03/23 03:58:23;;;;;;;14.43;11.80;;;7.50;99.90;;;;;;5036661;28;20229;-72
2021/03/23 04:00:49;;;;;;;15.47;12.17;;;7.50;99.90;;;;;;5030043;28;20442;-72
2021/03/23 04:03:19;;;;;;;17.83;11.90;;;7.50;99.90;;;;;;5016530;28;20175;-72
2021/03/23 04:05:46;;;;;;;20.13;12.93;;;7.50;99.90;;;;;;5016372;28;20190;-72
2021/03/23 04:08:14;;;;;;;17.63;13.03;;;7.50;99.90;;;;;;5015715;28;20444;-72
2021/03/23 04:10:41;;;;;;;19.40;12.77;;;7.60;99.90;;;;;;5017476;28;20494;-73
2021/03/23 04:13:06;;;;;;;17.23;12.80;;;7.60;99.90;;;;;;5016680;28;20413;-72
2021/03/23 04:15:38;;;;;;;17.53;12.07;;;7.50;99.90;;;;;;5016524;28;21001;-72
2021/03/23 04:18:05;;;;;;;16.27;12.60;;;7.50;99.90;;;;;;5016303;28;20529;-72
2021/03/23 04:20:32;;;;;;;16.60;12.80;;;7.50;99.90;;;;;;5016514;28;20529;-72
2021/03/23 04:22:58;;;;;;;21.00;13.40;;;7.50;99.90;;;;;;5017322;28;20447;-72
2021/03/23 04:25:29;;;;;;;17.57;12.93;;;7.60;99.90;;;;;;5016227;28;20413;-72
2021/03/23 04:27:55;;;;;;;19.33;13.43;;;7.60;99.90;;;;;;5014908;28;20465;-73
2021/03/23 04:30:22;;;;;;;18.80;13.30;;;7.50;99.90;;;;;;5016061;28;20443;-72
2021/03/23 04:32:48;;;;;;;14.93;12.30;;;7.60;99.90;;;;;;5016854;28;20524;-72
2021/03/23 04:35:43;;;;;;;17.70;12.03;;;7.60;99.90;;;;;;5014978;28;20454;-72
2021/03/23 04:38:11;;;;;;;17.23;11.90;;;7.50;99.90;;;;;;4993975;28;20417;-72
2021/03/23 04:40:37;;;;;;;18.43;12.60;;;7.50;99.90;;;;;;4993683;28;20455;-72
2021/03/23 04:43:04;;;;;;;15.33;11.10;;;7.60;99.90;;;;;;4977251;28;20427;-72
2021/03/23 04:45:30;;;;;;;15.87;11.63;;;7.60;99.90;;;;;;4994363;28;21019;-72
2021/03/23 04:47:56;;;;;;;19.57;13.40;;;7.60;99.90;;;;;;4993479;28;20413;-72
2021/03/23 04:50:22;;;;;;;21.17;12.10;;;7.60;99.90;;;;;;4993799;28;20439;-72
2021/03/23 04:52:47;;;;;;;15.27;12.37;;;7.60;99.90;;;;;;4994234;28;20185;-72
2021/03/23 04:55:14;;;;;;;15.53;11.37;;;7.60;99.90;;;;;;4993645;28;20296;-72
2021/03/23 04:57:40;;;;;;;18.13;12.63;;;7.50;99.90;;;;;;4993466;28;20238;-72
2021/03/23 05:00:07;;;;;;;16.13;12.93;;;7.60;99.90;;;;;;4994039;28;20444;-72
2021/03/23 05:02:32;;;;;;;16.30;12.77;;;7.60;99.90;;;;;;4977399;28;20237;-72
2021/03/23 05:04:58;;;;;;;18.60;14.30;;;7.60;99.90;;;;;;4993270;28;20428;-72
2021/03/23 05:07:24;;;;;;;17.93;13.17;;;7.70;99.90;;;;;;4993606;28;20185;-72
2021/03/23 05:09:50;;;;;;;21.90;14.73;;;7.70;99.90;;;;;;4993632;28;20557;-72
2021/03/23 05:12:16;;;;;;;19.23;13.70;;;7.70;99.90;;;;;;4994278;28;20425;-71
2021/03/23 05:14:41;;;;;;;19.80;14.23;;;7.70;99.90;;;;;;5004669;28;20224;-72
2021/03/23 05:17:08;;;;;;;20.13;14.10;;;7.70;99.90;;;;;;5016322;28;20189;-72
2021/03/23 05:19:34;;;;;;;21.63;14.10;;;7.70;99.90;;;;;;5015523;28;20186;-72
2021/03/23 05:22:00;;;;;;;20.07;13.87;;;7.70;99.90;;;;;;5020054;28;20414;-72
2021/03/23 05:24:25;;;;;;;19.20;13.47;;;7.70;99.90;;;;;;5016955;28;20532;-72
2021/03/23 05:26:51;;;;;;;24.27;14.27;;;7.70;99.90;;;;;;5018396;28;20188;-72
2021/03/23 05:29:16;;;;;;;20.20;15.03;;;7.60;99.90;;;;;;5016090;28;20722;-72
2021/03/23 05:31:42;;;;;;;19.67;14.57;;;7.70;99.90;;;;;;5014929;28;20199;-72
2021/03/23 05:34:11;;;;;;;20.90;14.10;;;7.70;99.90;;;;;;5015487;28;20195;-72
2021/03/23 05:36:37;;;;;;;19.60;14.77;;;7.60;99.90;;;;;;5014713;28;20176;-72
2021/03/23 05:39:03;;;;;;;20.13;14.63;;;7.50;99.90;;;;;;5013777;28;20415;-72
2021/03/23 05:41:53;;;;;;;18.87;14.50;;;7.60;99.90;;;;;;5015174;28;20317;-71
2021/03/23 05:44:41;;;;;;;19.93;14.80;;;7.60;99.90;;;;;;5014792;28;20450;-72
2021/03/23 05:47:16;;;;;;;24.77;15.90;;;7.60;99.90;;;;;;5015834;28;20430;-72
2021/03/23 05:50:05;;;;;;;22.97;14.87;;;7.70;99.90;;;;;;5014646;28;20406;-72
2021/03/23 05:52:55;;;;;;;22.00;15.90;;;7.70;99.90;;;;;;5015040;28;20409;-71
2021/03/23 05:55:40;;;;;;;19.70;15.27;;;7.70;99.90;;;;;;5010599;28;20476;-72
2021/03/23 05:58:26;;;;;;;21.80;16.00;;;7.70;99.90;;;;;;5015558;28;20429;-72
2021/03/23 06:00:58;;;;;;;20.60;15.17;;;7.60;99.90;;;;;;5013859;28;20446;-72
2021/03/23 06:03:36;;;;;;;21.17;15.90;;;7.60;99.90;;;;;;5014128;28;20424;-72
2021/03/23 06:06:20;;;;;;;19.70;15.63;;;7.70;99.90;;;;;;5014172;28;20430;-72
2021/03/23 06:08:48;;;;;;;22.30;16.00;;;7.60;99.90;;;;;;5015429;28;20420;-72
2021/03/23 06:11:17;;;;;;;21.77;15.90;;;7.60;99.90;;;;;;5012880;28;20767;-72
2021/03/23 06:13:48;;;;;;;23.87;17.00;;;7.70;99.90;;;;;;5007404;28;20457;-72
2021/03/23 06:16:32;;;;;;;26.27;18.00;;;7.60;99.90;;;;;;5002661;28;20509;-73
2021/03/23 06:19:09;;;;;;;22.43;15.50;;;7.50;99.90;;;;;;5006026;28;20467;-73
2021/03/23 06:21:51;;;;;;;20.67;15.53;;;7.60;99.90;;;;;;5016421;28;20435;-73
2021/03/23 06:24:41;;;;;;;20.83;15.73;;;7.60;99.90;;;;;;5003513;28;20774;-73
2021/03/23 06:27:23;;;;;;;21.47;16.27;;;7.70;99.90;;;;;;5005790;28;20822;-72
2021/03/23 06:29:51;;;;;;;23.93;16.97;;;7.70;99.90;;;;;;5001260;28;20487;-72
2021/03/23 06:32:45;;;;;;;23.73;16.67;;;7.80;99.90;;;;;;5012901;28;20469;-72
2021/03/23 06:35:14;;;;;;;20.37;15.10;;;7.80;99.90;;;;;;5005735;28;20462;-72
2021/03/23 06:37:41;;;;;;;22.73;16.87;;;7.80;99.90;;;;;;5000262;28;20440;-72
2021/03/23 06:40:10;;;;;;;21.80;15.03;;;7.80;99.90;;;;;;5001024;28;20448;-73
2021/03/23 06:42:40;;;;;;;24.70;17.70;;;7.70;99.90;;;;;;5004178;28;20727;-72
2021/03/23 06:45:20;;;;;;;24.17;17.20;;;7.70;99.90;;;;;;5016865;28;20437;-72
2021/03/23 06:47:46;;;;;;;22.83;15.57;;;7.80;99.90;;;;;;5001209;28;20494;-72
2021/03/23 06:50:36;;;;;;;23.97;16.60;;;7.80;99.90;;;;;;5002831;28;20450;-72
2021/03/23 06:53:09;;;;;;;21.70;15.43;;;7.80;99.90;;;;;;4990619;28;20929;-74
2021/03/23 06:55:37;;;;;;;23.67;16.70;;;7.80;99.90;;;;;;4998762;28;20459;-73
2021/03/23 06:58:38;;;;;;;26.43;17.20;;;7.80;99.90;;;;;;4997766;28;20449;-73
2021/03/23 07:01:24;;;;;;;24.30;16.73;;;7.90;99.90;;;;;;5003095;28;20518;-72
2021/03/23 07:03:53;;;;;;;25.70;17.40;;;8.10;99.90;;;;;;5008494;28;20457;-72
2021/03/23 07:06:22;;;;;;;21.17;15.43;;;8.10;99.90;;;;;;4998001;28;20436;-72
2021/03/23 07:09:19;;;;;;;25.43;16.73;;;8.10;99.90;;;;;;4981535;28;20493;-73
2021/03/23 07:11:55;;;;;;;24.00;17.27;;;8.10;99.90;;;;;;4991950;28;20450;-72
2021/03/23 07:14:28;;;;;;;25.07;16.30;;;8.00;99.90;;;;;;4983522;28;20499;-72
2021/03/23 07:17:21;;;;;;;24.63;17.87;;;8.10;99.90;;;;;;4985800;28;20444;-72
2021/03/23 07:20:04;;;;;;;22.40;16.67;;;8.10;99.90;;;;;;4979090;28;20818;-72
2021/03/23 07:22:41;;;;;;;22.10;16.30;;;8.10;99.90;;;;;;4978480;28;20861;-73
2021/03/23 07:25:32;;;;;;;21.30;16.33;;;8.00;99.90;;;;;;4976282;28;20467;-72
2021/03/23 07:28:23;;;;;;;24.77;16.20;;;8.00;99.90;;;;;;4985032;28;20968;-72
2021/03/23 07:31:16;;;;;;;22.83;16.07;;;8.00;99.90;;;;;;5012502;28;20517;-72
2021/03/23 07:34:03;;;;;;;25.63;17.07;;;8.10;99.90;;;;;;5016591;28;20455;-72
2021/03/23 07:36:39;;;;;;;23.20;17.63;;;8.10;99.90;;;;;;5008198;28;20741;-72
2021/03/23 07:39:20;;;;;;;24.40;18.07;;;8.20;99.90;;;;;;5016775;28;20401;-72
2021/03/23 07:42:02;;;;;;;24.53;17.30;;;8.20;99.90;;;;;;5010922;28;20457;-72
2021/03/23 07:44:36;;;;;;;25.63;16.90;;;8.30;99.90;;;;;;5006746;28;20961;-73
2021/03/23 07:47:10;;;;;;;27.10;17.73;;;8.30;99.80;;;;;;5007128;28;20425;-73
2021/03/23 07:49:39;;;;;;;24.50;17.57;;;8.40;99.90;;;;;;5017281;28;20469;-72
2021/03/23 07:52:28;;;;;;;22.50;17.47;;;8.50;99.70;;;;;;5007381;28;20991;-73
2021/03/23 07:54:58;;;;;;;32.27;18.07;;;8.50;99.90;;;;;;5005444;28;20485;-71
2021/03/23 07:58:04;;;;;;;25.20;17.93;;;8.50;99.40;;;;;;5019843;28;20448;-71
2021/03/23 08:00:49;;;;;;;24.40;16.20;;;8.60;99.30;;;;;;5012046;28;20485;-71
2021/03/23 08:04:02;;;;;;;28.03;18.57;;;8.60;99.40;;;;;;5014447;28;20513;-73
2021/03/23 08:06:32;;;;;;;27.13;18.17;;;8.60;99.20;;;;;;4946333;28;20491;-72
2021/03/23 08:09:15;;;;;;;29.57;17.80;;;8.50;99.40;;;;;;4962343;28;20443;-72
2021/03/23 08:12:23;;;;;;;25.57;17.87;;;8.60;99.40;;;;;;4956086;28;20444;-72
2021/03/23 08:15:17;;;;;;;25.60;18.27;;;8.70;99.30;;;;;;4950067;28;20460;-72
2021/03/23 08:18:00;;;;;;;29.10;19.00;;;8.80;99.30;;;;;;4957490;28;20443;-74
2021/03/23 08:20:53;;;;;;;27.90;17.90;;;8.70;99.20;;;;;;4944779;28;20829;-73
2021/03/23 08:23:33;;;;;;;25.17;17.10;;;8.80;99.40;;;;;;4941730;29;20796;-73
2021/03/23 08:26:32;;;;;;;25.70;18.10;;;8.70;99.40;;;;;;4967281;28;20523;-72
2021/03/23 08:29:24;;;;;;;28.97;18.20;;;8.80;99.50;;;;;;4956101;28;20436;-72
2021/03/23 08:32:04;;;;;;;26.87;18.00;;;8.80;99.50;;;;;;4967635;28;20454;-74
2021/03/23 08:34:51;;;;;;;29.07;17.57;;;8.90;99.60;;;;;;4958316;28;20459;-72
2021/03/23 08:37:41;;;;;;;33.33;19.87;;;8.90;99.40;;;;;;4965563;28;20941;-73
2021/03/23 08:40:24;;;;;;;26.77;18.80;;;9.10;99.40;;;;;;4970798;28;20475;-74
2021/03/23 08:42:49;;;;;;;27.30;18.50;;;9.20;99.20;;;;;;5014025;28;20468;-73
2021/03/23 08:45:21;;;;;;;24.80;17.93;;;9.20;99.10;;;;;;5012045;28;20888;-73
2021/03/23 08:47:50;;;;;;;29.40;20.13;;;9.30;99.10;;;;;;5028461;28;20174;-72
2021/03/23 08:50:25;;;;;;;31.73;20.20;;;9.30;99.20;;;;;;5013262;28;20442;-72
2021/03/23 08:52:56;;;;;;;28.83;19.70;;;9.30;99.10;;;;;;5030315;28;20437;-73
2021/03/23 08:55:31;;;;;;;31.33;20.87;;;9.30;99.00;;;;;;5029290;28;20453;-71
2021/03/23 08:58:03;;;;;;;28.97;19.53;;;9.20;99.30;;;;;;5021475;28;20465;-72
2021/03/23 09:00:38;;;;;;;29.90;20.33;;;9.30;99.30;;;;;;5028816;28;20483;-74
2021/03/23 09:03:07;;;;;;;30.30;21.20;;;9.40;99.10;;;;;;5028298;28;20437;-72
2021/03/23 09:05:51;;;;;;;29.10;18.90;;;9.50;99.20;;;;;;5016815;28;20499;-72
2021/03/23 09:08:29;;;;;;;31.00;20.47;;;9.50;99.10;;;;;;4997465;28;20473;-72
2021/03/23 09:11:00;;;;;;;30.90;20.57;;;9.50;99.20;;;;;;5017021;28;20441;-72
2021/03/23 09:13:35;;;;;;;35.27;20.40;;;9.50;99.30;;;;;;5037872;28;20429;-72
2021/03/23 09:16:10;;;;;;;32.97;21.57;;;9.50;99.30;;;;;;5019088;28;21028;-73
2021/03/23 09:18:38;;;;;;;31.87;21.10;;;9.60;99.30;;;;;;5025919;28;21125;-72
2021/03/23 09:21:09;;;;;;;30.20;21.10;;;9.60;99.30;;;;;;5026505;28;20490;-70
2021/03/23 09:23:38;;;;;;;35.30;22.00;;;9.60;99.30;;;;;;5016346;28;20433;-73
2021/03/23 09:26:35;;;;;;;32.90;22.00;;;9.60;99.30;;;;;;5012578;28;20568;-71
2021/03/23 09:29:24;;;;;;;32.47;20.57;;;9.70;99.30;;;;;;5012521;28;20920;-72
2021/03/23 09:31:49;;;;;;;33.10;21.37;;;9.80;99.30;;;;;;5027198;28;20433;-71
2021/03/23 09:34:52;;;;;;;31.60;22.30;;;9.70;99.20;;;;;;5023489;28;20463;-73
2021/03/23 09:37:39;;;;;;;33.20;21.30;;;9.70;99.30;;;;;;5012476;28;20207;-73
2021/03/23 09:40:20;;;;;;;32.47;21.93;;;9.70;99.50;;;;;;5001911;28;20452;-72
2021/03/23 09:43:02;;;;;;;34.27;20.87;;;9.80;99.50;;;;;;5011240;28;20422;-73
2021/03/23 09:45:37;;;;;;;34.50;20.93;;;9.80;99.60;;;;;;5019823;28;20519;-72
2021/03/23 09:48:12;;;;;;;31.57;20.27;;;9.80;99.40;;;;;;5013872;28;20429;-72
2021/03/23 09:50:53;;;;;;;33.03;20.60;;;9.80;99.50;;;;;;5025822;28;20438;-71
2021/03/23 09:53:28;;;;;;;30.70;21.20;;;9.90;99.70;;;;;;5027556;28;20421;-71
2021/03/23 09:56:02;;;;;;;30.60;20.87;;;9.90;99.30;;;;;;5017240;28;20472;-72
2021/03/23 09:58:28;;;;;;;45.63;22.07;;;9.90;99.40;;;;;;5024841;28;20433;-71
2021/03/23 10:01:12;;;;;;;33.07;20.67;;;10.00;99.30;;;;;;5007710;28;20934;-72
2021/03/23 10:03:41;;;;;;;33.40;21.43;;;9.90;99.30;;;;;;5010906;28;20182;-71
2021/03/23 10:06:19;;;;;;;27.90;20.57;;;9.90;99.30;;;;;;5011771;28;20973;-73
2021/03/23 10:08:53;;;;;;;31.67;21.03;;;9.80;99.50;;;;;;5001751;28;20434;-71
2021/03/23 10:11:20;;;;;;;30.67;19.80;;;9.80;99.70;;;;;;5003915;28;20450;-72
2021/03/23 10:13:57;;;;;;;28.47;21.10;;;9.90;99.70;;;;;;5012488;28;20922;-74
2021/03/23 10:16:32;;;;;;;28.00;18.80;;;10.10;98.80;;;;;;5020564;28;20425;-73
2021/03/23 10:19:04;;;;;;;32.13;19.10;;;10.00;98.80;;;;;;5026826;28;20768;-72
2021/03/23 10:21:32;;;;;;;30.20;19.83;;;10.10;98.80;;;;;;5032312;28;20778;-71
2021/03/23 10:24:00;;;;;;;24.10;17.73;;;10.20;98.70;;;;;;5035404;28;20404;-72
2021/03/23 10:26:37;;;;;;;35.73;18.60;;;10.30;98.50;;;;;;5028430;28;20456;-72
2021/03/23 10:29:15;;;;;;;32.10;19.40;;;10.30;98.40;;;;;;5015429;28;20433;-72
2021/03/23 10:31:45;;;;;;;36.83;18.87;;;10.40;98.40;;;;;;5019803;28;20418;-71
2021/03/23 10:34:15;;;;;;;26.27;16.47;;;10.40;98.10;;;;;;5035008;28;20445;-72
2021/03/23 10:37:02;;;;;;;27.90;18.67;;;10.40;98.20;;;;;;5028900;28;20415;-72
2021/03/23 10:39:31;;;;;;;25.07;17.50;;;10.50;98.20;;;;;;5041177;28;20429;-72
2021/03/23 10:41:58;;;;;;;23.37;17.20;;;10.50;98.00;;;;;;5061862;28;20412;-72
2021/03/23 10:44:30;;;;;;;21.40;16.03;;;10.60;97.90;;;;;;5059891;28;20500;-72
2021/03/23 10:46:57;;;;;;;25.13;17.07;;;10.60;97.60;;;;;;5043755;28;20440;-72
2021/03/23 10:49:24;;;;;;;25.10;16.73;;;10.70;97.50;;;;;;5041370;28;20757;-72
2021/03/23 10:51:57;;;;;;;24.13;17.03;;;10.60;97.60;;;;;;5042426;28;20440;-72
2021/03/23 10:54:49;;;;;;;22.00;15.80;;;10.50;97.50;;;;;;5043424;28;20446;-72
2021/03/23 10:57:33;;;;;;;22.07;16.30;;;10.40;97.70;;;;;;5038992;28;20413;-72
2021/03/23 11:00:23;;;;;;;23.43;16.90;;;10.50;97.70;;;;;;5026769;28;20526;-72
2021/03/23 11:02:49;;;;;;;27.40;17.70;;;10.50;97.40;;;;;;5020368;28;20426;-72
2021/03/23 11:05:18;;;;;;;23.83;16.77;;;10.40;97.80;;;;;;5021198;28;20578;-72
2021/03/23 11:07:56;;;;;;;23.63;16.50;;;10.50;98.00;;;;;;5020444;28;20175;-73
2021/03/23 11:10:25;;;;;;;20.97;15.70;;;10.50;97.70;;;;;;5021344;28;20487;-71
2021/03/23 11:12:50;;;;;;;26.73;17.70;;;10.70;97.80;;;;;;5022742;28;20426;-72
2021/03/23 11:15:16;;;;;;;26.37;18.07;;;10.90;97.60;;;;;;5024590;28;20460;-72
2021/03/23 11:18:01;;;;;;;24.27;17.50;;;10.90;97.50;;;;;;5041683;28;20531;-72
2021/03/23 11:20:37;;;;;;;25.90;18.17;;;10.90;97.40;;;;;;5042724;28;20449;-72
2021/03/23 11:23:20;;;;;;;23.98;17.70;;;11.00;97.10;;;;;;5042560;28;20857;-72
2021/03/23 11:25:46;;;;;;;22.07;16.20;;;11.00;97.50;;;;;;5039841;28;20166;-72
2021/03/23 11:28:17;;;;;;;22.43;16.53;;;11.20;97.30;;;;;;5021244;28;20489;-72
2021/03/23 11:30:44;;;;;;;25.60;17.00;;;11.40;97.10;;;;;;5022032;28;20494;-72
2021/03/23 11:33:14;;;;;;;23.97;18.47;;;11.50;97.10;;;;;;5019177;28;20418;-73
2021/03/23 11:35:46;;;;;;;21.50;16.53;;;11.60;96.60;;;;;;5020314;28;20474;-73
2021/03/23 11:38:12;;;;;;;25.53;16.77;;;11.50;96.60;;;;;;5020960;28;20422;-73
2021/03/23 11:40:39;;;;;;;22.13;16.30;;;11.60;96.50;;;;;;5019953;28;20458;-72
2021/03/23 11:43:05;;;;;;;24.20;15.43;;;11.70;96.40;;;;;;5020058;28;20899;-73
2021/03/23 11:45:37;;;;;;;27.80;16.93;;;11.80;96.30;;;;;;5020053;28;20441;-72
2021/03/23 11:48:08;;;;;;;26.90;17.13;;;11.80;95.80;;;;;;5022219;28;20433;-72
2021/03/23 11:50:35;;;;;;;24.80;17.03;;;11.90;95.80;;;;;;5021830;28;20819;-72
2021/03/23 11:53:01;;;;;;;24.67;16.50;;;12.10;95.70;;;;;;5036871;28;20516;-72
2021/03/23 11:55:39;;;;;;;26.73;17.47;;;12.30;95.30;;;;;;5025448;28;20477;-73
2021/03/23 11:58:05;;;;;;;21.43;16.60;;;12.30;95.00;;;;;;5022580;28;20512;-73
2021/03/23 12:00:32;;;;;;;23.83;17.77;;;12.40;95.00;;;;;;5037922;28;20453;-73
2021/03/23 12:02:59;;;;;;;19.87;16.47;;;12.40;94.90;;;;;;5030669;28;20431;-73
2021/03/23 12:05:26;;;;;;;25.30;18.40;;;12.40;94.80;;;;;;5026484;28;20434;-73
2021/03/23 12:08:09;;;;;;;21.33;17.20;;;12.20;94.80;;;;;;5028690;28;20422;-73
2021/03/23 12:10:47;;;;;;;29.17;18.27;;;12.10;95.00;;;;;;5036931;28;20845;-74
2021/03/23 12:13:38;;;;;;;32.73;19.60;;;12.10;95.20;;;;;;5026262;28;20450;-72
2021/03/23 12:16:12;;;;;;;23.70;16.60;;;12.20;95.20;;;;;;5017708;28;20458;-73
2021/03/23 12:18:40;;;;;;;23.53;18.83;;;12.30;95.10;;;;;;5016175;28;20445;-72
2021/03/23 12:21:07;;;;;;;25.33;19.53;;;12.40;94.90;;;;;;5016557;28;20839;-72
2021/03/23 12:23:33;;;;;;;28.90;17.90;;;12.30;95.00;;;;;;5016088;28;20430;-72
2021/03/23 12:25:59;;;;;;;27.90;19.13;;;12.40;95.10;;;;;;5016768;28;20426;-72
2021/03/23 12:28:26;;;;;;;24.90;17.60;;;12.40;95.00;;;;;;5016633;28;20172;-72
2021/03/23 12:30:52;;;;;;;25.27;18.13;;;12.40;95.10;;;;;;5025454;28;20445;-72
2021/03/23 12:33:18;;;;;;;31.17;19.90;;;12.30;94.70;;;;;;5035472;28;20406;-72
2021/03/23 12:35:44;;;;;;;24.43;18.90;;;12.00;95.00;;;;;;5037332;28;20199;-71
2021/03/23 12:38:12;;;;;;;23.50;18.70;;;11.70;95.30;;;;;;5034971;28;20473;-72
2021/03/23 12:40:38;;;;;;;28.53;21.33;;;11.90;95.60;;;;;;5035319;28;20708;-72
2021/03/23 12:43:12;;;;;;;25.97;18.60;;;12.00;95.50;;;;;;5023723;28;20461;-72
2021/03/23 12:45:41;;;;;;;25.57;19.40;;;11.90;95.60;;;;;;5016901;28;20464;-72
2021/03/23 12:48:09;;;;;;;30.47;20.83;;;12.10;95.60;;;;;;5015338;28;20411;-72
2021/03/23 12:50:34;;;;;;;28.00;19.00;;;12.10;95.40;;;;;;5016063;28;20445;-72
2021/03/23 12:53:03;;;;;;;27.03;17.53;;;12.10;95.50;;;;;;5019172;28;20431;-72
2021/03/23 12:55:31;;;;;;;26.93;20.90;;;12.10;95.50;;;;;;5017068;28;20207;-73
2021/03/23 12:58:01;;;;;;;24.90;18.03;;;12.00;95.60;;;;;;5017144;28;20904;-72
2021/03/23 13:00:33;;;;;;;28.60;18.77;;;12.00;95.80;;;;;;5015467;28;20434;-73